createdAt,value
2018-11-10T00:01:14.911Z,43.05
2018-11-10T00:03:42.692Z,43.23
2018-11-10T00:06:13.961Z,42.93
2018-11-10T00:08:41.791Z,43.12
2018-11-10T00:11:09.531Z,42.71
2018-11-10T00:13:37.331Z,43.21
2018-11-10T00:16:05.406Z,42.93
2018-11-10T00:18:33.249Z,42.67
2018-11-10T00:21:02.048Z,43.22
2018-11-10T00:23:31.436Z,42.63
2018-11-10T00:26:05.256Z,42.75
2018-11-10T00:28:33.210Z,42.95
2018-11-10T00:31:00.902Z,43.20
2018-11-10T00:33:32.317Z,42.98
2018-11-10T00:36:00.122Z,42.60
2018-11-10T00:38:27.966Z,42.54
2018-11-10T00:40:55.715Z,42.75
2018-11-10T00:43:31.034Z,42.62
2018-11-10T00:45:58.795Z,42.78
2018-11-10T00:48:26.559Z,42.85
2018-11-10T00:50:54.327Z,42.55
2018-11-10T00:53:22.081Z,42.76
2018-11-10T00:55:49.838Z,42.47
2018-11-10T00:58:17.631Z,42.83
2018-11-10T01:00:45.424Z,42.92
2018-11-10T01:03:13.192Z,42.64
2018-11-10T01:05:40.939Z,43.10
2018-11-10T01:08:08.659Z,42.63
2018-11-10T01:10:36.364Z,42.36
2018-11-10T01:13:04.145Z,42.75
2018-11-10T01:15:31.946Z,42.94
2018-11-10T01:17:59.623Z,42.58
2018-11-10T01:20:27.452Z,42.67
2018-11-10T01:22:55.215Z,42.94
2018-11-10T01:25:23.042Z,43.03
2018-11-10T01:27:50.939Z,43.00
2018-11-10T01:30:18.655Z,43.16
2018-11-10T01:32:46.813Z,42.92
2018-11-10T01:35:15.128Z,43.04
2018-11-10T01:37:42.940Z,43.03
2018-11-10T01:40:11.492Z,42.59
2018-11-10T01:42:39.285Z,42.58
2018-11-10T01:45:08.220Z,42.89
2018-11-10T01:47:35.944Z,42.56
2018-11-10T01:50:03.753Z,42.94
2018-11-10T01:52:31.498Z,43.07
2018-11-10T01:55:01.292Z,42.66
2018-11-10T01:57:29.023Z,43.10
2018-11-10T01:59:56.792Z,42.66
2018-11-10T02:02:24.530Z,42.80
2018-11-10T02:04:52.357Z,42.78
2018-11-10T02:07:20.134Z,42.57
2018-11-10T02:09:47.931Z,42.83
2018-11-10T02:12:15.703Z,43.06
2018-11-10T02:14:43.435Z,42.66
2018-11-10T02:17:11.118Z,42.97
2018-11-10T02:19:42.348Z,43.04
2018-11-10T02:22:10.163Z,43.00
2018-11-10T02:24:37.890Z,43.00
2018-11-10T02:27:09.867Z,42.96
2018-11-10T02:29:43.628Z,42.67
2018-11-10T02:32:11.393Z,42.92
2018-11-10T02:34:39.104Z,42.83
2018-11-10T02:37:06.873Z,43.03
2018-11-10T02:39:34.675Z,42.66
2018-11-10T02:42:02.415Z,42.50
2018-11-10T02:44:30.192Z,42.98
2018-11-10T02:46:57.974Z,42.85
2018-11-10T02:49:25.722Z,42.83
2018-11-10T02:51:54.559Z,42.91
2018-11-10T02:54:22.274Z,42.52
2018-11-10T02:56:50.057Z,43.10
2018-11-10T02:59:17.831Z,42.42
2018-11-10T03:01:45.606Z,42.96
2018-11-10T03:04:13.370Z,42.37
2018-11-10T03:06:41.133Z,42.25
2018-11-10T03:09:09.429Z,43.08
2018-11-10T03:11:37.545Z,42.41
2018-11-10T03:14:05.688Z,42.49
2018-11-10T03:16:33.594Z,42.60
2018-11-10T03:19:01.223Z,42.41
2018-11-10T03:21:29.079Z,42.41
2018-11-10T03:23:56.829Z,42.93
2018-11-10T03:26:24.576Z,42.40
2018-11-10T03:28:52.335Z,42.35
2018-11-10T03:31:20.139Z,42.61
2018-11-10T03:33:47.877Z,42.66
2018-11-10T03:36:15.651Z,42.91
2018-11-10T03:38:43.380Z,43.01
2018-11-10T03:41:15.492Z,42.61
2018-11-10T03:43:43.212Z,42.98
2018-11-10T03:46:10.951Z,42.94
2018-11-10T03:48:38.797Z,42.74
2018-11-10T03:51:06.790Z,42.82
2018-11-10T03:53:34.502Z,42.91
2018-11-10T03:56:02.215Z,42.94
2018-11-10T03:58:29.992Z,42.66
2018-11-10T04:00:57.749Z,42.68
2018-11-10T04:03:25.500Z,42.61
2018-11-10T04:05:53.257Z,43.06
2018-11-10T04:08:20.988Z,42.60
2018-11-10T04:10:48.716Z,42.35
2018-11-10T04:13:16.420Z,42.87
2018-11-10T04:15:54.209Z,42.56
2018-11-10T04:18:21.911Z,42.59
2018-11-10T04:20:49.608Z,42.24
2018-11-10T04:23:17.367Z,42.63
2018-11-10T04:25:45.062Z,42.49
2018-11-10T04:28:12.864Z,42.17
2018-11-10T04:30:40.523Z,42.64
2018-11-10T04:33:08.260Z,42.36
2018-11-10T04:35:35.980Z,42.52
2018-11-10T04:38:03.716Z,42.57
2018-11-10T04:40:31.526Z,42.61
2018-11-10T04:42:59.270Z,42.20
2018-11-10T04:45:27.017Z,42.49
2018-11-10T04:47:54.729Z,42.41
2018-11-10T04:50:22.522Z,42.60
2018-11-10T04:52:50.287Z,42.19
2018-11-10T04:55:18.033Z,42.32
2018-11-10T04:57:45.752Z,42.09
2018-11-10T05:00:15.530Z,42.50
2018-11-10T05:02:44.105Z,42.49
2018-11-10T05:05:11.923Z,42.08
2018-11-10T05:07:39.664Z,42.44
2018-11-10T05:10:07.959Z,42.15
2018-11-10T05:12:35.770Z,41.53
2018-11-10T05:15:03.651Z,41.85
2018-11-10T05:17:31.463Z,42.26
2018-11-10T05:19:59.150Z,41.73
2018-11-10T05:22:26.833Z,40.54
2018-11-10T05:24:55.717Z,38.97
2018-11-10T05:27:23.463Z,37.34
2018-11-10T05:29:51.189Z,36.41
2018-11-10T05:32:18.950Z,35.84
2018-11-10T05:34:46.702Z,35.70
2018-11-10T05:37:14.405Z,35.12
2018-11-10T05:39:42.164Z,34.95
2018-11-10T05:42:09.892Z,34.68
2018-11-10T05:44:37.606Z,34.61
2018-11-10T05:47:05.404Z,35.17
2018-11-10T05:49:33.085Z,35.26
2018-11-10T05:52:02.334Z,35.08
2018-11-10T05:54:30.065Z,35.44
2018-11-10T05:56:57.878Z,35.42
2018-11-10T05:59:25.648Z,35.72
2018-11-10T06:01:59.023Z,35.42
2018-11-10T06:04:26.943Z,36.11
2018-11-10T06:06:55.410Z,36.11
2018-11-10T06:09:23.351Z,36.67
2018-11-10T06:11:51.395Z,36.81
2018-11-10T06:14:19.757Z,37.08
2018-11-10T06:16:48.198Z,37.02
2018-11-10T06:19:15.998Z,37.26
2018-11-10T06:21:43.811Z,37.63
2018-11-10T06:24:11.565Z,37.69
2018-11-10T06:26:39.300Z,37.27
2018-11-10T06:29:07.592Z,37.80
2018-11-10T06:31:35.360Z,37.42
2018-11-10T06:34:04.239Z,37.69
2018-11-10T06:36:31.984Z,37.45
2018-11-10T06:38:59.709Z,38.40
2018-11-10T06:41:27.538Z,37.77
2018-11-10T06:43:55.627Z,38.54
2018-11-10T06:46:25.487Z,38.80
2018-11-10T06:48:53.289Z,38.83
2018-11-10T06:51:21.822Z,38.66
2018-11-10T06:53:50.195Z,38.36
2018-11-10T06:56:19.321Z,38.62
2018-11-10T06:58:48.494Z,38.54
2018-11-10T07:01:16.273Z,39.45
2018-11-10T07:03:44.073Z,39.49
2018-11-10T07:06:11.923Z,34.84
2018-11-10T07:08:40.733Z,36.56
2018-11-10T07:11:09.472Z,38.90
2018-11-10T07:13:38.400Z,40.77
2018-11-10T07:16:07.402Z,43.73
2018-11-10T07:21:42.345Z,45.75
2018-11-10T07:24:35.476Z,46.55
2018-11-10T07:27:08.391Z,48.85
2018-11-10T07:29:39.386Z,47.78
2018-11-10T07:32:14.038Z,48.74
2018-11-10T07:34:42.859Z,48.30
2018-11-10T07:37:11.606Z,49.23
2018-11-10T07:39:40.180Z,49.80
2018-11-10T07:42:08.822Z,49.41
2018-11-10T07:44:37.670Z,48.62
2018-11-10T07:47:24.521Z,50.00
2018-11-10T07:49:53.237Z,49.32
2018-11-10T07:52:21.912Z,49.56
2018-11-10T07:57:44.317Z,49.48
2018-11-10T08:00:14.711Z,48.72
2018-11-10T08:02:43.473Z,47.61
2018-11-10T08:05:12.620Z,48.25
2018-11-10T08:07:42.047Z,46.99
2018-11-10T08:10:11.323Z,47.12
2018-11-10T08:12:42.776Z,46.86
2018-11-10T08:15:13.605Z,48.45
2018-11-10T08:17:42.535Z,47.60
2018-11-10T08:20:11.916Z,48.38
2018-11-10T08:22:40.686Z,50.25
2018-11-10T08:25:11.712Z,50.60
2018-11-10T08:27:41.179Z,50.10
2018-11-10T08:30:12.465Z,48.41
2018-11-10T08:32:41.744Z,48.08
2018-11-10T08:41:07.510Z,48.49
2018-11-10T08:43:36.591Z,46.84
2018-11-10T08:46:05.651Z,46.59
2018-11-10T08:48:34.461Z,46.50
2018-11-10T08:51:03.376Z,45.95
2018-11-10T08:53:40.847Z,46.10
2018-11-10T08:56:09.595Z,45.74
2018-11-10T08:58:38.131Z,45.42
2018-11-10T09:01:06.845Z,45.30
2018-11-10T09:03:35.843Z,44.44
2018-11-10T09:06:05.605Z,45.76
2018-11-10T09:08:36.972Z,45.75
2018-11-10T09:11:12.300Z,45.02
2018-11-10T09:13:42.289Z,45.76
2018-11-10T09:16:11.130Z,44.74
2018-11-10T09:18:39.718Z,45.09
2018-11-10T09:21:08.533Z,44.46
2018-11-10T09:23:37.103Z,44.96
2018-11-10T09:26:06.047Z,44.71
2018-11-10T09:28:34.688Z,45.90
2018-11-10T09:31:03.394Z,46.04
2018-11-10T09:33:36.068Z,44.73
2018-11-10T09:36:04.708Z,44.46
2018-11-10T09:38:34.282Z,45.84
2018-11-10T09:41:04.111Z,46.87
2018-11-10T09:43:32.840Z,44.89
2018-11-10T09:46:01.478Z,44.41
2018-11-10T09:48:30.264Z,42.91
2018-11-10T09:51:07.164Z,43.47
2018-11-10T09:53:35.916Z,43.02
2018-11-10T09:56:04.579Z,41.80
2018-11-10T09:58:34.009Z,41.06
2018-11-10T10:01:04.335Z,40.70
2018-11-10T10:03:33.328Z,41.16
2018-11-10T10:06:02.740Z,40.82
2018-11-10T10:08:31.691Z,39.88
2018-11-10T10:11:00.587Z,40.48
2018-11-10T10:13:32.906Z,40.79
2018-11-10T10:16:01.692Z,40.57
2018-11-10T10:18:30.602Z,40.10
2018-11-10T10:20:59.317Z,41.06
2018-11-10T10:23:28.137Z,40.22
2018-11-10T10:26:07.314Z,40.12
2018-11-10T10:28:41.744Z,40.33
2018-11-10T10:34:15.174Z,38.76
2018-11-10T10:36:43.805Z,38.61
2018-11-10T10:42:11.911Z,36.80
2018-11-10T10:44:45.578Z,36.72
2018-11-10T10:49:58.466Z,37.03
2018-11-10T10:52:40.521Z,37.16
2018-11-10T10:55:17.265Z,36.84
2018-11-10T10:57:49.317Z,36.17
2018-11-10T11:00:28.069Z,35.69
2018-11-10T11:03:05.597Z,34.75
2018-11-10T11:05:44.957Z,35.43
2018-11-10T11:08:19.966Z,34.08
2018-11-10T11:10:52.239Z,34.50
2018-11-10T11:13:24.672Z,35.30
2018-11-10T11:15:56.008Z,34.10
2018-11-10T11:18:25.182Z,34.20
2018-11-10T11:20:53.977Z,33.50
2018-11-10T11:23:24.652Z,32.88
2018-11-10T11:25:53.507Z,32.84
2018-11-10T11:28:22.445Z,33.54
2018-11-10T11:30:51.019Z,32.38
2018-11-10T11:33:21.637Z,33.21
2018-11-10T11:35:52.792Z,31.03
2018-11-10T11:38:33.381Z,31.54
2018-11-10T11:41:12.750Z,32.57
2018-11-10T11:43:42.330Z,32.24
2018-11-10T11:46:12.031Z,32.96
2018-11-10T11:48:40.620Z,31.72
2018-11-10T11:51:09.195Z,32.63
2018-11-10T11:53:38.926Z,31.87
2018-11-10T11:56:07.585Z,32.09
2018-11-10T11:58:48.441Z,32.15
2018-11-10T12:01:17.212Z,31.96
2018-11-10T12:03:45.976Z,32.93
2018-11-10T12:06:14.611Z,32.44
2018-11-10T12:08:43.354Z,31.31
2018-11-10T12:11:12.069Z,31.63
2018-11-10T12:13:42.672Z,31.19
2018-11-10T12:16:11.498Z,30.52
2018-11-10T12:18:40.614Z,31.19
2018-11-10T12:21:10.308Z,30.76
2018-11-10T12:23:39.026Z,30.09
2018-11-10T12:26:07.819Z,30.70
2018-11-10T12:34:22.112Z,29.61
2018-11-10T12:36:54.134Z,30.54
2018-11-10T12:39:22.802Z,30.76
2018-11-10T12:41:51.487Z,30.65
2018-11-10T12:44:20.149Z,30.93
2018-11-10T12:46:48.880Z,31.51
2018-11-10T12:49:17.542Z,30.53
2018-11-10T12:51:46.128Z,31.08
2018-11-10T12:54:14.735Z,30.55
2018-11-10T12:56:43.429Z,31.51
2018-11-10T12:59:16.060Z,31.24
2018-11-10T13:01:44.690Z,31.00
2018-11-10T13:04:14.371Z,30.76
2018-11-10T13:06:43.126Z,31.07
2018-11-10T13:09:13.987Z,30.34
2018-11-10T13:11:43.653Z,30.19
2018-11-10T13:14:12.739Z,29.69
2018-11-10T13:16:42.377Z,29.74
2018-11-10T13:19:12.234Z,29.39
2018-11-10T13:21:51.593Z,29.05
2018-11-10T13:24:20.663Z,29.54
2018-11-10T13:26:50.759Z,30.11
2018-11-10T13:29:19.822Z,28.93
2018-11-10T13:31:51.341Z,29.64
2018-11-10T13:34:36.177Z,28.77
2018-11-10T13:37:06.827Z,29.02
2018-11-10T13:39:52.766Z,29.30
2018-11-10T13:42:25.493Z,28.59
2018-11-10T13:45:35.506Z,28.16
2018-11-10T13:51:12.354Z,28.15
2018-11-10T13:53:45.678Z,28.94
2018-11-10T13:56:16.584Z,29.52
2018-11-10T13:58:46.276Z,31.66
2018-11-10T14:01:15.550Z,31.90
2018-11-10T14:03:46.846Z,31.68
2018-11-10T14:06:18.452Z,31.87
2018-11-10T14:08:47.719Z,33.81
2018-11-10T14:11:16.851Z,33.92
2018-11-10T14:13:52.922Z,34.02
2018-11-10T14:16:22.039Z,33.46
2018-11-10T14:27:29.840Z,35.88
2018-11-10T14:30:01.197Z,35.63
2018-11-10T14:32:30.541Z,36.60
2018-11-10T14:34:59.674Z,35.90
2018-11-10T14:37:30.173Z,36.42
2018-11-10T14:39:59.479Z,35.84
2018-11-10T14:42:29.115Z,36.34
2018-11-10T14:45:05.560Z,36.41
2018-11-10T14:47:35.713Z,36.27
2018-11-10T14:50:11.588Z,36.50
2018-11-10T14:52:40.965Z,37.04
2018-11-10T14:55:11.096Z,36.97
2018-11-10T14:57:40.329Z,37.79
2018-11-10T15:00:11.612Z,37.20
2018-11-10T15:02:42.256Z,37.43
2018-11-10T15:05:12.340Z,37.77
2018-11-10T15:07:42.094Z,37.85
2018-11-10T15:10:12.812Z,37.89
2018-11-10T15:12:42.235Z,37.45
2018-11-10T15:15:20.005Z,37.83
2018-11-10T15:20:53.899Z,38.29
2018-11-10T15:23:22.879Z,38.41
2018-11-10T15:25:51.561Z,38.22
2018-11-10T15:28:20.484Z,39.01
2018-11-10T15:30:49.387Z,37.86
2018-11-10T15:33:25.795Z,38.53
2018-11-10T15:35:54.585Z,38.17
2018-11-10T15:38:28.013Z,39.19
2018-11-10T15:41:00.715Z,39.40
2018-11-10T15:43:29.535Z,38.99
2018-11-10T15:46:03.552Z,39.48
2018-11-10T15:48:37.071Z,39.30
2018-11-10T15:51:14.787Z,39.24
2018-11-10T15:54:24.162Z,39.47
2018-11-10T15:56:53.618Z,39.35
2018-11-10T15:59:22.663Z,40.25
2018-11-10T16:02:09.218Z,40.10
2018-11-10T16:04:40.523Z,40.01
2018-11-10T16:07:11.736Z,40.60
2018-11-10T16:09:42.079Z,40.26
2018-11-10T16:12:13.724Z,40.64
2018-11-10T16:14:43.730Z,40.64
2018-11-10T16:17:20.217Z,40.52
2018-11-10T16:19:54.262Z,40.80
2018-11-10T16:22:26.900Z,40.83
2018-11-10T16:25:11.018Z,40.78
2018-11-10T16:27:40.534Z,41.04
2018-11-10T16:30:11.799Z,40.86
2018-11-10T16:32:45.774Z,41.50
2018-11-10T16:35:20.452Z,42.09
2018-11-10T16:37:51.561Z,42.00
2018-11-10T16:40:21.670Z,42.73
2018-11-10T16:42:52.222Z,42.70
2018-11-10T16:45:23.241Z,42.58
2018-11-10T16:48:06.166Z,43.27
2018-11-10T16:53:50.489Z,44.79
2018-11-10T16:56:19.335Z,44.35
2018-11-10T16:58:48.250Z,44.76
2018-11-10T17:01:17.555Z,44.96
2018-11-10T17:03:46.501Z,44.49
2018-11-10T17:06:16.605Z,45.21
2018-11-10T17:08:46.537Z,45.03
2018-11-10T17:11:15.986Z,45.40
2018-11-10T17:13:45.268Z,45.42
2018-11-10T17:16:15.051Z,45.13
2018-11-10T17:18:44.389Z,45.57
2018-11-10T17:21:13.405Z,45.35
2018-11-10T17:23:43.063Z,45.49
2018-11-10T17:26:11.810Z,46.84
2018-11-10T17:28:40.736Z,46.05
2018-11-10T17:31:09.481Z,45.67
2018-11-10T17:33:38.946Z,45.97
2018-11-10T17:36:08.031Z,45.54
2018-11-10T17:38:37.842Z,45.81
2018-11-10T17:41:06.428Z,46.09
2018-11-10T17:43:34.934Z,45.92
2018-11-10T17:46:03.970Z,45.57
2018-11-10T17:48:33.276Z,44.69
2018-11-10T17:51:02.071Z,45.17
2018-11-10T17:53:30.826Z,44.71
2018-11-10T17:55:59.463Z,45.15
2018-11-10T17:58:28.264Z,45.30
2018-11-10T18:00:56.817Z,45.24
2018-11-10T18:03:25.388Z,44.39
2018-11-10T18:05:54.251Z,45.91
2018-11-10T18:08:22.984Z,46.16
2018-11-10T18:10:51.545Z,45.03
2018-11-10T18:13:21.145Z,44.65
2018-11-10T18:15:49.992Z,44.48
2018-11-10T18:18:18.821Z,45.92
2018-11-10T18:20:47.500Z,45.45
2018-11-10T18:23:16.104Z,46.03
2018-11-10T18:25:44.765Z,43.96
2018-11-10T18:28:13.803Z,44.93
2018-11-10T18:30:42.353Z,44.59
2018-11-10T18:33:10.963Z,44.94
2018-11-10T18:35:39.617Z,44.64
2018-11-10T18:38:08.224Z,44.09
2018-11-10T18:40:36.890Z,44.37
2018-11-10T18:43:05.616Z,44.81
2018-11-10T18:45:34.810Z,44.49
2018-11-10T18:48:03.719Z,44.27
2018-11-10T18:50:32.346Z,44.64
2018-11-10T18:53:03.034Z,44.15
2018-11-10T18:55:32.429Z,43.50
2018-11-10T18:58:01.275Z,44.51
2018-11-10T19:00:30.021Z,44.12
2018-11-10T19:02:58.681Z,45.15
2018-11-10T19:05:28.517Z,44.85
2018-11-10T19:08:00.670Z,44.47
2018-11-10T19:10:29.713Z,44.48
2018-11-10T19:12:58.802Z,46.23
2018-11-10T19:15:28.963Z,44.35
2018-11-10T19:17:58.174Z,44.15
2018-11-10T19:20:27.528Z,44.79
2018-11-10T19:22:57.396Z,44.33
2018-11-10T19:25:26.670Z,45.26
2018-11-10T19:27:56.014Z,44.83
2018-11-10T19:30:25.266Z,43.80
2018-11-10T19:32:54.870Z,45.55
2018-11-10T19:35:24.590Z,45.49
2018-11-10T19:37:53.277Z,44.93
2018-11-10T19:40:21.770Z,45.09
2018-11-10T19:42:52.206Z,44.43
2018-11-10T19:45:21.441Z,45.46
2018-11-10T19:47:51.991Z,45.81
2018-11-10T19:50:21.208Z,47.12
2018-11-10T19:52:51.288Z,45.88
2018-11-10T19:55:20.600Z,45.52
2018-11-10T19:57:50.386Z,45.08
2018-11-10T20:00:20.793Z,45.48
2018-11-10T20:02:49.560Z,45.09
2018-11-10T20:05:20.495Z,44.91
2018-11-10T20:07:49.186Z,44.27
2018-11-10T20:10:18.021Z,44.67
2018-11-10T20:12:47.113Z,44.09
2018-11-10T20:15:16.619Z,43.79
2018-11-10T20:17:45.666Z,44.70
2018-11-10T20:20:15.872Z,44.83
2018-11-10T20:22:44.611Z,44.69
2018-11-10T20:25:14.680Z,44.88
2018-11-10T20:27:44.281Z,45.41
2018-11-10T20:30:19.081Z,45.12
2018-11-10T20:32:47.817Z,46.17
2018-11-10T20:35:16.546Z,46.30
2018-11-10T20:37:45.803Z,46.45
2018-11-10T20:40:17.859Z,45.67
2018-11-10T20:42:47.030Z,45.53
2018-11-10T20:45:18.576Z,45.50
2018-11-10T20:47:47.257Z,45.02
2018-11-10T20:50:16.321Z,44.45
2018-11-10T20:52:45.052Z,44.55
2018-11-10T20:55:14.075Z,45.04
2018-11-10T20:57:42.849Z,44.65
2018-11-10T21:00:16.580Z,45.11
2018-11-10T21:02:45.613Z,45.36
2018-11-10T21:05:14.906Z,45.42
2018-11-10T21:07:45.415Z,45.03
2018-11-10T21:10:16.270Z,44.93
2018-11-10T21:12:45.617Z,44.86
2018-11-10T21:15:15.954Z,45.47
2018-11-10T21:17:44.810Z,45.22
2018-11-10T21:20:14.065Z,44.62
2018-11-10T21:22:42.872Z,44.98
2018-11-10T21:25:14.192Z,45.63
2018-11-10T21:27:43.407Z,45.62
2018-11-10T21:30:13.465Z,45.53
2018-11-10T21:32:42.437Z,46.22
2018-11-10T21:35:11.205Z,45.61
2018-11-10T21:37:39.756Z,45.86
2018-11-10T21:40:10.787Z,46.00
2018-11-10T21:42:39.565Z,46.08
2018-11-10T21:45:09.451Z,46.80
2018-11-10T21:47:38.114Z,45.78
2018-11-10T21:50:09.401Z,45.32
2018-11-10T21:52:40.892Z,44.54
2018-11-10T21:55:14.746Z,44.72
2018-11-10T21:57:44.560Z,44.53
2018-11-10T22:00:15.188Z,44.87
2018-11-10T22:02:44.493Z,45.06
2018-11-10T22:05:14.106Z,45.38
2018-11-10T22:07:43.184Z,46.62
2018-11-10T22:10:13.759Z,45.95
2018-11-10T22:12:42.564Z,45.50
2018-11-10T22:15:14.927Z,44.63
2018-11-10T22:17:44.855Z,44.20
2018-11-10T22:20:16.394Z,44.77
2018-11-10T22:22:44.979Z,45.13
2018-11-10T22:25:13.959Z,44.72
2018-11-10T22:27:44.249Z,44.93
2018-11-10T22:30:14.943Z,44.29
2018-11-10T22:32:44.158Z,44.57
2018-11-10T22:35:13.076Z,44.25
2018-11-10T22:37:41.856Z,44.72
2018-11-10T22:40:12.494Z,44.41
2018-11-10T22:42:42.652Z,45.26
2018-11-10T22:45:13.525Z,44.55
2018-11-10T22:47:42.597Z,44.23
2018-11-10T22:50:14.520Z,44.36
2018-11-10T22:52:44.398Z,45.07
2018-11-10T22:55:12.987Z,45.51
2018-11-10T22:57:42.817Z,45.19
2018-11-10T23:00:19.807Z,45.83
2018-11-10T23:02:53.161Z,45.83
2018-11-10T23:05:26.371Z,46.68
2018-11-10T23:07:58.728Z,47.17
2018-11-10T23:10:27.278Z,47.31
2018-11-10T23:12:59.582Z,47.29
2018-11-10T23:15:28.307Z,48.89
2018-11-10T23:18:00.086Z,47.75
2018-11-10T23:20:28.835Z,48.38
2018-11-10T23:23:01.657Z,46.78
2018-11-10T23:25:33.238Z,47.70
2018-11-10T23:28:05.683Z,47.79
2018-11-10T23:30:35.486Z,48.30
2018-11-10T23:33:04.061Z,48.12
2018-11-10T23:35:32.588Z,48.03
2018-11-10T23:38:01.155Z,47.83
2018-11-10T23:40:30.350Z,47.07
2018-11-10T23:42:59.027Z,47.04
2018-11-10T23:45:27.883Z,46.83
2018-11-10T23:47:56.528Z,47.47
2018-11-10T23:50:30.165Z,47.19
2018-11-10T23:53:02.110Z,47.93
2018-11-10T23:55:34.587Z,46.95
2018-11-10T23:58:09.740Z,47.10
